Time;durP1;ratioP1;P1;durP2;ratioP2;P2;SDS_P1;SDS_P2;PMS_P1;PMS_P2;Temp;Humidity;BMP_temperature;BMP_pressure;BME280_temperature;BME280_humidity;BME280_pressure;Samples;Min_cycle;Max_cycle;Signal;HPM_P1;HPM_P2
2022/03/03 00:00:51;;;;;;;20.03;18.10;;;2.70;99.90;;;;;;4943115;29;20059;-72
2022/03/03 00:03:16;;;;;;;16.53;14.90;;;2.70;99.90;;;;;;4944847;29;20031;-72
2022/03/03 00:05:42;;;;;;;26.23;20.37;;;2.70;99.90;;;;;;4945648;29;20583;-72
2022/03/03 00:08:07;;;;;;;22.67;19.97;;;2.70;99.90;;;;;;4944459;29;20505;-72
2022/03/03 00:10:33;;;;;;;28.43;20.67;;;2.70;99.90;;;;;;4944896;29;20047;-72
2022/03/03 00:12:58;;;;;;;22.13;18.93;;;2.70;99.90;;;;;;4945276;28;20036;-72
2022/03/03 00:15:24;;;;;;;23.20;16.73;;;2.70;99.90;;;;;;4943808;29;20130;-72
2022/03/03 00:17:50;;;;;;;18.63;16.83;;;2.60;99.90;;;;;;4943569;28;20039;-72
2022/03/03 00:20:15;;;;;;;34.73;20.33;;;2.70;99.90;;;;;;4945211;29;20079;-72
2022/03/03 00:22:41;;;;;;;22.70;18.37;;;2.60;99.90;;;;;;4944854;29;20035;-72
2022/03/03 00:25:07;;;;;;;24.40;21.37;;;2.60;99.90;;;;;;4944496;28;20039;-72
2022/03/03 00:27:33;;;;;;;27.93;22.80;;;2.60;99.90;;;;;;4945344;28;20047;-72
2022/03/03 00:29:58;;;;;;;26.33;20.80;;;2.60;99.90;;;;;;4943407;29;20143;-72
2022/03/03 00:32:24;;;;;;;18.33;15.60;;;2.60;99.90;;;;;;4944956;29;20396;-72
2022/03/03 00:34:49;;;;;;;37.73;20.60;;;2.60;99.90;;;;;;4944458;28;20383;-72
2022/03/03 00:37:17;;;;;;;24.83;20.30;;;2.60;99.90;;;;;;4944557;28;20500;-72
2022/03/03 00:39:42;;;;;;;33.43;18.63;;;2.50;99.90;;;;;;4945346;29;20050;-72
2022/03/03 00:42:08;;;;;;;31.53;20.10;;;2.50;99.90;;;;;;4944763;28;20499;-72
2022/03/03 00:44:33;;;;;;;21.60;17.67;;;2.50;99.90;;;;;;4936175;28;20754;-72
2022/03/03 00:46:59;;;;;;;26.73;17.50;;;2.50;99.90;;;;;;4939829;28;20055;-72
2022/03/03 00:49:24;;;;;;;25.47;20.50;;;2.50;99.90;;;;;;4944604;29;20469;-72
2022/03/03 00:51:50;;;;;;;25.33;20.77;;;2.50;99.90;;;;;;4944178;29;20043;-72
2022/03/03 00:54:15;;;;;;;26.07;19.43;;;2.50;99.90;;;;;;4943403;29;20051;-72
2022/03/03 00:56:41;;;;;;;24.43;20.97;;;2.50;99.90;;;;;;4945137;28;20315;-72
2022/03/03 00:59:07;;;;;;;24.77;18.73;;;2.40;99.90;;;;;;4942144;29;20110;-72
2022/03/03 01:01:32;;;;;;;21.80;17.33;;;2.40;99.90;;;;;;4943287;28;20035;-72
2022/03/03 01:03:58;;;;;;;28.10;18.20;;;2.40;99.90;;;;;;4943738;28;20383;-72
2022/03/03 01:06:23;;;;;;;19.40;17.37;;;2.40;99.90;;;;;;4943939;28;20093;-72
2022/03/03 01:08:49;;;;;;;28.47;19.30;;;2.40;99.90;;;;;;4944287;29;20086;-72
2022/03/03 01:11:15;;;;;;;26.53;21.67;;;2.40;99.90;;;;;;4947289;28;20467;-72
2022/03/03 01:13:40;;;;;;;29.47;18.10;;;2.30;99.90;;;;;;4948185;28;20110;-72
2022/03/03 01:16:06;;;;;;;35.70;21.83;;;2.30;99.90;;;;;;4946143;28;20489;-72
2022/03/03 01:18:32;;;;;;;30.77;23.13;;;2.30;99.90;;;;;;4947717;29;20035;-72
2022/03/03 01:20:57;;;;;;;23.03;18.57;;;2.30;99.90;;;;;;4947587;29;20101;-72
2022/03/03 01:23:23;;;;;;;21.47;18.77;;;2.30;99.90;;;;;;4948026;28;20409;-72
2022/03/03 01:25:49;;;;;;;32.87;23.03;;;2.30;99.90;;;;;;4945980;28;20051;-72
2022/03/03 01:28:14;;;;;;;28.47;18.33;;;2.30;99.90;;;;;;4946310;28;20086;-72
2022/03/03 01:30:40;;;;;;;30.00;22.33;;;2.30;99.90;;;;;;4947312;28;20209;-72
2022/03/03 01:33:06;;;;;;;22.13;18.40;;;2.30;99.90;;;;;;4945880;28;20069;-72
2022/03/03 01:35:32;;;;;;;23.83;19.20;;;2.20;99.90;;;;;;4947858;28;20043;-72
2022/03/03 01:37:58;;;;;;;26.60;18.40;;;2.30;99.90;;;;;;4946163;28;20051;-72
2022/03/03 01:40:25;;;;;;;26.03;19.53;;;2.30;99.90;;;;;;4929843;29;20051;-72
2022/03/03 01:42:51;;;;;;;28.87;20.63;;;2.30;99.90;;;;;;4947450;28;20133;-72
2022/03/03 01:45:17;;;;;;;34.53;19.80;;;2.20;99.90;;;;;;4933522;28;20076;-72
2022/03/03 01:47:43;;;;;;;20.60;17.77;;;2.20;99.90;;;;;;4928258;29;20691;-72
2022/03/03 01:50:09;;;;;;;21.37;17.13;;;2.20;99.90;;;;;;4927102;29;20106;-72
2022/03/03 01:52:35;;;;;;;21.37;16.20;;;2.10;99.90;;;;;;4928110;29;20050;-72
2022/03/03 01:55:00;;;;;;;39.37;23.47;;;2.10;99.90;;;;;;4926470;29;20377;-72
2022/03/03 01:57:27;;;;;;;26.23;19.60;;;2.10;99.90;;;;;;4928454;29;20044;-72
2022/03/03 01:59:52;;;;;;;31.93;20.63;;;2.10;99.90;;;;;;4926831;29;20146;-72
2022/03/03 02:02:20;;;;;;;23.53;17.67;;;2.00;99.90;;;;;;4926219;29;20080;-72
2022/03/03 02:04:46;;;;;;;28.43;18.30;;;2.00;99.90;;;;;;4927764;29;20043;-72
2022/03/03 02:07:11;;;;;;;21.07;17.90;;;2.00;99.90;;;;;;4944149;23;20406;-76
2022/03/03 02:09:39;;;;;;;31.40;20.67;;;2.00;99.90;;;;;;4926110;29;20113;-76
2022/03/03 02:12:05;;;;;;;20.77;18.60;;;2.00;99.90;;;;;;4927072;29;20079;-76
2022/03/03 02:14:43;;;;;;;28.83;19.10;;;2.00;99.90;;;;;;4926143;29;20155;-76
2022/03/03 02:17:09;;;;;;;24.77;20.23;;;2.00;99.90;;;;;;4927170;29;20051;-76
2022/03/03 02:19:35;;;;;;;42.13;20.40;;;2.00;99.90;;;;;;4927867;29;20039;-76
2022/03/03 02:22:01;;;;;;;30.00;20.00;;;2.00;99.90;;;;;;4926661;29;20051;-76
2022/03/03 02:24:26;;;;;;;21.93;17.07;;;2.00;99.90;;;;;;4909615;29;20050;-76
2022/03/03 02:26:53;;;;;;;24.27;18.97;;;1.90;99.90;;;;;;4926260;29;20513;-76
2022/03/03 02:29:19;;;;;;;22.70;16.93;;;1.90;99.90;;;;;;4926549;29;20545;-76
2022/03/03 02:31:45;;;;;;;20.47;17.13;;;2.00;99.90;;;;;;4927502;29;20042;-75
2022/03/03 02:34:11;;;;;;;24.77;18.33;;;1.90;99.90;;;;;;4927937;29;20438;-76
2022/03/03 02:36:37;;;;;;;24.37;17.63;;;2.00;99.90;;;;;;4925025;29;20051;-76
2022/03/03 02:39:05;;;;;;;32.57;19.37;;;1.90;99.90;;;;;;4926070;29;20044;-76
2022/03/03 02:41:31;;;;;;;26.70;18.57;;;1.90;99.90;;;;;;4927102;29;20048;-76
2022/03/03 02:43:58;;;;;;;35.53;17.43;;;1.90;99.90;;;;;;4922309;29;20050;-75
2022/03/03 02:46:23;;;;;;;27.70;20.17;;;1.90;99.90;;;;;;4908067;29;20090;-76
2022/03/03 02:48:49;;;;;;;32.10;21.43;;;1.90;99.90;;;;;;4938420;28;20479;-76
2022/03/03 02:51:15;;;;;;;27.20;19.10;;;1.90;99.90;;;;;;4925626;29;20795;-75
2022/03/03 02:53:40;;;;;;;29.40;17.47;;;1.80;99.90;;;;;;4926678;29;20063;-76
2022/03/03 02:56:07;;;;;;;26.43;20.77;;;1.80;99.90;;;;;;4925347;29;20099;-75
2022/03/03 02:58:33;;;;;;;22.20;16.97;;;1.80;99.90;;;;;;4927177;29;20047;-76
2022/03/03 03:01:00;;;;;;;28.40;19.50;;;1.80;99.90;;;;;;4925734;29;20048;-76
2022/03/03 03:03:26;;;;;;;25.93;18.43;;;1.80;99.90;;;;;;4926883;29;20040;-75
2022/03/03 03:05:51;;;;;;;31.40;21.93;;;1.70;99.90;;;;;;4925388;29;20051;-76
2022/03/03 03:08:18;;;;;;;18.03;16.20;;;1.70;99.90;;;;;;4926350;29;20122;-75
2022/03/03 03:10:43;;;;;;;23.87;18.97;;;1.70;99.90;;;;;;4927120;29;20098;-76
2022/03/03 03:13:12;;;;;;;26.00;17.93;;;1.70;99.90;;;;;;4909548;29;20051;-76
2022/03/03 03:15:39;;;;;;;22.70;20.43;;;1.70;99.90;;;;;;4924957;29;20055;-75
2022/03/03 03:18:11;;;;;;;22.87;18.43;;;1.70;99.90;;;;;;4926212;29;20553;-76
2022/03/03 03:20:39;;;;;;;28.65;18.65;;;1.70;99.90;;;;;;4925072;29;20524;-75
2022/03/03 03:23:05;;;;;;;34.40;20.33;;;1.70;99.90;;;;;;4926296;29;20648;-76
2022/03/03 03:25:30;;;;;;;32.07;17.80;;;1.70;99.90;;;;;;4926885;29;20055;-75
2022/03/03 03:27:56;;;;;;;28.47;18.77;;;1.70;99.90;;;;;;4908802;29;20083;-75
2022/03/03 03:30:22;;;;;;;21.07;19.10;;;1.60;99.90;;;;;;4925529;29;20043;-75
2022/03/03 03:32:47;;;;;;;29.63;18.50;;;1.60;99.90;;;;;;4925008;29;20073;-75
2022/03/03 03:35:13;;;;;;;26.93;14.60;;;1.60;99.90;;;;;;4909548;29;20085;-76
2022/03/03 03:37:38;;;;;;;29.87;21.83;;;1.60;99.90;;;;;;4926442;29;20185;-76
2022/03/03 03:40:07;;;;;;;25.60;18.70;;;1.60;99.90;;;;;;4924917;29;20105;-76
2022/03/03 03:42:33;;;;;;;18.80;16.47;;;1.60;99.90;;;;;;4926024;29;20062;-76
2022/03/03 03:44:59;;;;;;;21.83;15.43;;;1.60;99.90;;;;;;4912730;29;20044;-76
2022/03/03 03:47:24;;;;;;;29.37;19.63;;;1.60;99.90;;;;;;4905964;29;20455;-75
2022/03/03 03:49:50;;;;;;;32.97;19.03;;;1.60;99.90;;;;;;4937651;28;20542;-76
2022/03/03 03:52:16;;;;;;;24.60;18.17;;;1.50;99.90;;;;;;4921523;29;20491;-76
2022/03/03 03:54:41;;;;;;;21.70;19.37;;;1.50;99.90;;;;;;4907800;29;20399;-76
2022/03/03 03:57:07;;;;;;;28.50;20.83;;;1.50;99.90;;;;;;4906721;29;20064;-76
2022/03/03 03:59:32;;;;;;;28.57;20.10;;;1.40;99.90;;;;;;4906168;29;20733;-76
2022/03/03 04:01:58;;;;;;;21.13;19.17;;;1.50;99.90;;;;;;4937817;28;20139;-76
2022/03/03 04:04:23;;;;;;;33.77;19.13;;;1.50;99.90;;;;;;4912861;29;20535;-76
2022/03/03 04:06:49;;;;;;;27.37;20.97;;;1.50;99.90;;;;;;4924329;29;20051;-76
2022/03/03 04:09:15;;;;;;;21.53;18.77;;;1.50;99.90;;;;;;4926193;29;20044;-76
2022/03/03 04:11:40;;;;;;;20.03;17.63;;;1.50;99.90;;;;;;4926274;29;20593;-76
2022/03/03 04:14:06;;;;;;;20.80;17.30;;;1.50;99.90;;;;;;4924762;29;20067;-75
2022/03/03 04:16:32;;;;;;;22.63;15.53;;;1.50;99.90;;;;;;4926222;29;20055;-76
2022/03/03 04:18:57;;;;;;;33.50;18.90;;;1.50;99.90;;;;;;4924009;29;20829;-75
2022/03/03 04:21:23;;;;;;;31.10;18.43;;;1.50;99.90;;;;;;4924710;29;20043;-75
2022/03/03 04:23:48;;;;;;;18.20;16.47;;;1.40;99.90;;;;;;4924140;29;20449;-76
2022/03/03 04:26:15;;;;;;;26.00;16.70;;;1.40;99.90;;;;;;4925978;29;20766;-76
2022/03/03 04:28:40;;;;;;;21.50;17.33;;;1.40;99.90;;;;;;4924117;29;20118;-75
2022/03/03 04:31:06;;;;;;;38.07;17.93;;;1.40;99.90;;;;;;4924558;29;20131;-76
2022/03/03 04:33:32;;;;;;;25.70;18.53;;;1.40;99.90;;;;;;4925645;29;20239;-76
2022/03/03 04:35:57;;;;;;;22.40;16.17;;;1.40;99.90;;;;;;4925519;29;20478;-76
2022/03/03 04:38:24;;;;;;;25.07;18.23;;;1.40;99.90;;;;;;4925570;29;20036;-75
2022/03/03 04:40:49;;;;;;;21.90;19.23;;;1.40;99.90;;;;;;4925091;29;20039;-75
2022/03/03 04:43:15;;;;;;;19.77;15.93;;;1.40;99.90;;;;;;4925473;29;20062;-75
2022/03/03 04:45:42;;;;;;;27.13;18.33;;;1.40;99.90;;;;;;4910848;29;20391;-75
2022/03/03 04:48:08;;;;;;;16.57;15.03;;;1.40;99.90;;;;;;4919774;29;20036;-75
2022/03/03 04:50:34;;;;;;;26.13;21.03;;;1.40;99.90;;;;;;4929351;29;20040;-75
2022/03/03 04:53:00;;;;;;;26.17;14.93;;;1.40;99.90;;;;;;4928071;29;20107;-76
2022/03/03 04:55:25;;;;;;;31.10;19.00;;;1.30;99.90;;;;;;4929494;29;20039;-75
2022/03/03 04:57:51;;;;;;;24.80;17.33;;;1.30;99.90;;;;;;4928674;29;20086;-76
2022/03/03 05:00:17;;;;;;;22.20;18.77;;;1.30;99.90;;;;;;4927015;29;20047;-76
2022/03/03 05:02:43;;;;;;;32.07;15.23;;;1.30;99.90;;;;;;4929329;29;20792;-76
2022/03/03 05:05:09;;;;;;;23.13;17.40;;;1.30;99.90;;;;;;4927615;29;20051;-76
2022/03/03 05:07:34;;;;;;;24.57;18.53;;;1.30;99.90;;;;;;4928978;29;20252;-75
2022/03/03 05:10:00;;;;;;;22.07;18.83;;;1.30;99.90;;;;;;4928271;29;20047;-75
2022/03/03 05:12:26;;;;;;;35.90;17.03;;;1.30;99.90;;;;;;4927937;29;20040;-75
2022/03/03 05:14:53;;;;;;;23.33;18.97;;;1.30;99.90;;;;;;4927884;29;20206;-75
2022/03/03 05:17:18;;;;;;;37.00;21.80;;;1.30;99.90;;;;;;4927430;29;20058;-75
2022/03/03 05:19:44;;;;;;;34.47;22.43;;;1.20;99.90;;;;;;4929209;29;20406;-76
2022/03/03 05:22:10;;;;;;;27.90;18.03;;;1.30;99.90;;;;;;4929410;29;20059;-76
2022/03/03 05:24:38;;;;;;;22.93;15.67;;;1.30;99.90;;;;;;4928398;29;20043;-76
2022/03/03 05:27:04;;;;;;;17.67;15.93;;;1.30;99.90;;;;;;4928387;29;20051;-75
2022/03/03 05:29:29;;;;;;;30.47;18.13;;;1.30;99.90;;;;;;4927813;29;20051;-76
2022/03/03 05:31:57;;;;;;;16.70;14.97;;;1.30;99.90;;;;;;4926893;29;20035;-76
2022/03/03 05:34:23;;;;;;;17.87;15.93;;;1.30;99.90;;;;;;4928483;29;20039;-76
2022/03/03 05:36:49;;;;;;;25.27;21.03;;;1.30;99.90;;;;;;4928300;29;20185;-75
2022/03/03 05:39:16;;;;;;;24.07;17.07;;;1.30;99.90;;;;;;4928420;29;20183;-76
2022/03/03 05:41:41;;;;;;;24.00;15.60;;;1.30;99.90;;;;;;4911625;29;20082;-76
2022/03/03 05:44:11;;;;;;;18.60;15.20;;;1.30;99.90;;;;;;4921918;29;20092;-76
2022/03/03 05:46:37;;;;;;;22.10;14.37;;;1.30;99.90;;;;;;4940184;28;20068;-75
2022/03/03 05:49:02;;;;;;;21.97;15.37;;;1.30;99.90;;;;;;4908848;29;20507;-76
2022/03/03 05:51:28;;;;;;;17.53;15.90;;;1.30;99.90;;;;;;4939856;28;20040;-76
2022/03/03 05:53:53;;;;;;;22.67;13.63;;;1.30;99.90;;;;;;4909255;29;20439;-75
2022/03/03 05:56:21;;;;;;;17.60;12.67;;;1.30;99.90;;;;;;4939634;28;20073;-76
2022/03/03 05:58:49;;;;;;;25.97;18.93;;;1.30;99.90;;;;;;4908724;29;20403;-76
2022/03/03 06:01:16;;;;;;;19.40;17.40;;;1.20;99.90;;;;;;4927016;29;20517;-75
2022/03/03 06:03:45;;;;;;;18.77;14.87;;;1.20;99.90;;;;;;4928502;29;20179;-75
2022/03/03 06:06:25;;;;;;;16.37;14.60;;;1.20;99.90;;;;;;4927016;29;20063;-76
2022/03/03 06:09:08;;;;;;;20.37;16.27;;;1.20;99.90;;;;;;4926079;29;20055;-76
2022/03/03 06:11:39;;;;;;;17.77;12.57;;;1.10;99.90;;;;;;4910814;29;21060;-75
2022/03/03 06:14:07;;;;;;;33.13;17.63;;;1.20;99.90;;;;;;4925730;29;20048;-76
2022/03/03 06:16:32;;;;;;;20.20;13.67;;;1.10;99.90;;;;;;4923153;29;20095;-74
2022/03/03 06:18:59;;;;;;;28.47;18.03;;;1.20;99.90;;;;;;4916460;29;20044;-76
2022/03/03 06:21:25;;;;;;;21.13;15.07;;;1.20;99.90;;;;;;4928586;29;20051;-77
2022/03/03 06:23:51;;;;;;;22.33;16.10;;;1.20;99.90;;;;;;4915368;29;20533;-75
2022/03/03 06:26:19;;;;;;;23.40;16.67;;;1.20;99.90;;;;;;4922949;29;20032;-75
2022/03/03 06:28:45;;;;;;;24.03;15.67;;;1.20;99.90;;;;;;4919408;29;20051;-74
2022/03/03 06:31:11;;;;;;;16.30;14.90;;;1.20;99.90;;;;;;4906707;29;21032;-75
2022/03/03 06:33:37;;;;;;;19.63;17.07;;;1.20;99.90;;;;;;4924133;29;20562;-75
2022/03/03 06:36:03;;;;;;;25.37;14.70;;;1.20;99.90;;;;;;4926885;29;20043;-75
2022/03/03 06:38:29;;;;;;;16.93;12.87;;;1.20;99.90;;;;;;4927582;29;20105;-75
2022/03/03 06:40:57;;;;;;;18.67;13.47;;;1.20;99.90;;;;;;4925689;28;20044;-75
2022/03/03 06:43:29;;;;;;;21.67;13.87;;;1.20;99.90;;;;;;4922402;28;20047;-76
2022/03/03 06:45:56;;;;;;;25.48;15.20;;;1.20;99.90;;;;;;4922259;29;20095;-76
2022/03/03 06:48:21;;;;;;;17.67;12.53;;;1.20;99.90;;;;;;4919246;29;20054;-76
2022/03/03 06:50:51;;;;;;;29.23;21.70;;;1.20;99.90;;;;;;4918198;29;20051;-76
2022/03/03 06:53:24;;;;;;;29.73;18.57;;;1.20;99.90;;;;;;4910638;29;20059;-76
2022/03/03 06:55:50;;;;;;;;;;;1.20;99.90;;;;;;4912144;29;20054;-76
2022/03/03 06:58:18;;;;;;;18.13;13.87;;;1.20;99.90;;;;;;4916746;29;19922;-76
2022/03/03 07:00:51;;;;;;;17.67;15.77;;;1.10;99.90;;;;;;4924191;29;20483;-77
2022/03/03 07:03:17;;;;;;;18.70;13.93;;;1.10;99.90;;;;;;4938195;28;20047;-76
2022/03/03 07:05:42;;;;;;;20.47;14.97;;;1.20;99.90;;;;;;4922400;29;20111;-75
2022/03/03 07:08:10;;;;;;;18.87;14.67;;;1.20;99.90;;;;;;4917726;29;20580;-74
2022/03/03 07:10:37;;;;;;;19.23;15.97;;;1.20;99.90;;;;;;4917473;29;20087;-76
2022/03/03 07:13:02;;;;;;;26.03;12.87;;;1.20;99.90;;;;;;4916179;29;20083;-78
2022/03/03 07:15:28;;;;;;;19.80;17.67;;;1.20;99.90;;;;;;4931279;29;20047;-78
2022/03/03 07:18:06;;;;;;;20.80;14.17;;;1.20;99.90;;;;;;4915009;29;20131;-80
2022/03/03 07:20:42;;;;;;;22.40;14.23;;;1.20;99.90;;;;;;4914785;29;20036;-78
2022/03/03 07:23:18;;;;;;;21.07;16.90;;;1.30;99.90;;;;;;4929263;29;20048;-77
2022/03/03 07:25:48;;;;;;;22.13;13.67;;;1.30;99.90;;;;;;4915860;29;20044;-77
2022/03/03 07:28:14;;;;;;;22.93;14.37;;;1.30;99.90;;;;;;4926845;29;20055;-77
2022/03/03 07:30:42;;;;;;;33.00;17.97;;;1.30;99.90;;;;;;4925349;29;20111;-77
2022/03/03 07:33:31;;;;;;;17.07;15.10;;;1.30;99.90;;;;;;4925528;29;20418;-78
2022/03/03 07:35:57;;;;;;;20.10;14.93;;;1.30;99.90;;;;;;4919390;29;20503;-73
2022/03/03 07:38:34;;;;;;;29.60;16.10;;;1.30;99.90;;;;;;4926935;29;20087;-73
2022/03/03 07:41:00;;;;;;;20.80;15.17;;;1.30;99.90;;;;;;4909418;29;20453;-73
2022/03/03 07:43:25;;;;;;;23.33;15.73;;;1.30;99.90;;;;;;4924982;29;20107;-73
2022/03/03 07:45:51;;;;;;;17.47;14.17;;;1.30;99.90;;;;;;4920519;29;20439;-73
2022/03/03 07:48:21;;;;;;;21.00;14.23;;;1.40;99.90;;;;;;4912101;29;20044;-73
2022/03/03 07:50:46;;;;;;;20.37;14.50;;;1.40;99.90;;;;;;4910559;29;20545;-73
2022/03/03 07:53:13;;;;;;;12.63;10.37;;;1.40;99.90;;;;;;4908513;29;20040;-73
2022/03/03 07:55:54;;;;;;;18.37;15.97;;;1.40;99.90;;;;;;4931901;28;20051;-73
2022/03/03 07:58:22;;;;;;;16.47;12.27;;;1.40;99.90;;;;;;4913035;29;20028;-73
2022/03/03 08:00:51;;;;;;;23.27;13.17;;;1.50;99.90;;;;;;4909525;29;20135;-73
2022/03/03 08:03:21;;;;;;;16.63;12.87;;;1.50;99.90;;;;;;4921094;29;20047;-73
2022/03/03 08:05:50;;;;;;;16.77;14.30;;;1.50;99.90;;;;;;4914869;29;20051;-73
2022/03/03 08:08:20;;;;;;;16.73;13.97;;;1.60;99.90;;;;;;4917262;29;20074;-73
2022/03/03 08:10:46;;;;;;;15.20;13.80;;;1.60;99.90;;;;;;4917396;29;20044;-73
2022/03/03 08:13:15;;;;;;;15.40;11.47;;;1.60;99.90;;;;;;4911375;29;20513;-73
2022/03/03 08:15:42;;;;;;;20.77;14.93;;;1.60;99.90;;;;;;4918397;29;20044;-73
2022/03/03 08:18:08;;;;;;;23.43;16.03;;;1.70;99.90;;;;;;4909262;29;20100;-73
2022/03/03 08:20:35;;;;;;;22.93;13.13;;;1.70;99.90;;;;;;4910704;29;20048;-73
2022/03/03 08:23:02;;;;;;;17.37;13.77;;;1.70;99.90;;;;;;4910194;29;20645;-73
2022/03/03 08:25:29;;;;;;;27.07;13.27;;;1.80;99.90;;;;;;4924288;29;20040;-74
2022/03/03 08:27:55;;;;;;;18.97;13.47;;;1.80;99.90;;;;;;4919731;29;20048;-76
2022/03/03 08:30:21;;;;;;;18.97;13.00;;;1.80;99.90;;;;;;4919129;29;20036;-74
2022/03/03 08:33:11;;;;;;;17.10;12.57;;;1.80;99.90;;;;;;4926043;29;20044;-73
2022/03/03 08:35:40;;;;;;;18.47;16.23;;;1.90;99.90;;;;;;4928986;29;20059;-73
2022/03/03 08:38:07;;;;;;;16.23;14.67;;;1.90;99.90;;;;;;4927257;29;20534;-74
2022/03/03 08:40:35;;;;;;;17.30;12.50;;;1.90;99.90;;;;;;4928407;29;20046;-73
2022/03/03 08:43:03;;;;;;;20.03;13.73;;;2.00;99.90;;;;;;4926076;29;20051;-74
2022/03/03 08:45:32;;;;;;;16.67;11.00;;;2.00;99.90;;;;;;4914259;29;20048;-74
2022/03/03 08:48:07;;;;;;;15.90;13.53;;;2.00;99.90;;;;;;4908129;29;20056;-74
2022/03/03 08:50:36;;;;;;;13.80;10.90;;;2.10;99.90;;;;;;4909210;29;20147;-74
2022/03/03 08:53:03;;;;;;;14.43;11.67;;;2.10;99.90;;;;;;4909186;29;20051;-74
2022/03/03 08:55:29;;;;;;;18.33;14.40;;;2.10;99.90;;;;;;4909477;29;20048;-74
2022/03/03 08:57:55;;;;;;;13.37;12.30;;;2.20;99.90;;;;;;4908644;29;20075;-74
2022/03/03 09:00:21;;;;;;;14.17;12.40;;;2.20;99.90;;;;;;4909336;29;20385;-74
2022/03/03 09:02:48;;;;;;;19.33;13.53;;;2.20;99.90;;;;;;4939624;28;20040;-74
2022/03/03 09:05:14;;;;;;;14.07;11.60;;;2.30;99.90;;;;;;4909484;29;20091;-73
2022/03/03 09:07:41;;;;;;;19.27;15.93;;;2.30;99.90;;;;;;4909363;29;20059;-73
2022/03/03 09:10:07;;;;;;;15.77;14.20;;;2.30;99.90;;;;;;4907225;29;20052;-74
2022/03/03 09:12:33;;;;;;;19.90;13.90;;;2.40;99.90;;;;;;4909251;29;20079;-73
2022/03/03 09:14:59;;;;;;;14.93;12.57;;;2.40;99.90;;;;;;4908193;29;20095;-74
2022/03/03 09:17:25;;;;;;;13.23;11.57;;;2.40;99.90;;;;;;4908841;29;20442;-74
2022/03/03 09:19:50;;;;;;;15.07;13.00;;;2.50;99.90;;;;;;4908798;29;20474;-74
2022/03/03 09:22:16;;;;;;;12.83;10.93;;;2.50;99.90;;;;;;4908710;29;20080;-74
2022/03/03 09:24:42;;;;;;;12.10;10.77;;;2.60;99.90;;;;;;4908775;29;20043;-74
2022/03/03 09:27:08;;;;;;;11.97;10.77;;;2.60;99.90;;;;;;4908837;29;20055;-74
2022/03/03 09:29:34;;;;;;;13.77;12.57;;;2.70;99.90;;;;;;4938614;28;20095;-73
2022/03/03 09:32:01;;;;;;;10.50;9.53;;;2.70;99.90;;;;;;4907824;29;20166;-73
2022/03/03 09:34:28;;;;;;;10.67;9.63;;;2.70;99.90;;;;;;4922895;29;20072;-74
2022/03/03 09:36:54;;;;;;;10.97;10.00;;;2.80;99.90;;;;;;4908362;29;20414;-74
2022/03/03 09:39:20;;;;;;;19.47;13.30;;;2.90;99.90;;;;;;4939116;28;20073;-73
2022/03/03 09:41:46;;;;;;;18.97;10.27;;;2.90;99.90;;;;;;4908287;29;20040;-73
2022/03/03 09:44:13;;;;;;;13.67;11.57;;;2.90;99.90;;;;;;4912570;29;20043;-73
2022/03/03 09:46:39;;;;;;;9.00;8.27;;;3.00;99.90;;;;;;4926625;29;20450;-73
2022/03/03 09:49:05;;;;;;;13.73;11.30;;;3.00;99.90;;;;;;4927195;29;20075;-74
2022/03/03 09:51:30;;;;;;;16.83;11.23;;;3.00;99.90;;;;;;4926709;29;20550;-73
2022/03/03 09:53:56;;;;;;;18.07;12.17;;;3.10;99.90;;;;;;4927296;29;20043;-73
2022/03/03 09:56:22;;;;;;;11.77;8.30;;;3.10;99.90;;;;;;4927300;29;20135;-73
2022/03/03 09:58:48;;;;;;;16.43;9.87;;;3.10;99.90;;;;;;4925967;29;20101;-74
2022/03/03 10:01:14;;;;;;;12.60;10.20;;;3.20;99.90;;;;;;4926329;29;20142;-74
2022/03/03 10:03:41;;;;;;;11.90;10.73;;;3.20;99.90;;;;;;4925904;29;20039;-74
2022/03/03 10:06:10;;;;;;;30.93;12.80;;;3.30;99.90;;;;;;4926102;29;20056;-73
2022/03/03 10:08:36;;;;;;;13.67;12.23;;;3.40;99.90;;;;;;4927079;29;20043;-73
2022/03/03 10:11:04;;;;;;;11.57;10.47;;;3.40;99.90;;;;;;4926642;29;20518;-74
2022/03/03 10:13:45;;;;;;;11.20;8.77;;;3.40;99.90;;;;;;4926471;29;20079;-74
2022/03/03 10:16:10;;;;;;;12.30;11.03;;;3.50;99.90;;;;;;4910116;29;20048;-73
2022/03/03 10:18:36;;;;;;;12.77;8.43;;;3.50;99.90;;;;;;4926941;29;20388;-74
2022/03/03 10:21:04;;;;;;;11.17;10.03;;;3.60;99.90;;;;;;4926684;29;20470;-74
2022/03/03 10:23:35;;;;;;;12.37;8.93;;;3.60;99.90;;;;;;4926820;29;20079;-74
2022/03/03 10:26:04;;;;;;;17.73;11.50;;;3.60;99.90;;;;;;4926564;29;20040;-74
2022/03/03 10:28:36;;;;;;;11.63;9.00;;;3.70;99.90;;;;;;4925724;29;20459;-74
2022/03/03 10:31:09;;;;;;;16.63;15.00;;;3.70;99.90;;;;;;4926400;29;20046;-74
2022/03/03 10:33:38;;;;;;;14.00;11.47;;;3.80;99.90;;;;;;4926973;29;20074;-74
2022/03/03 10:36:14;;;;;;;16.57;10.83;;;3.80;99.90;;;;;;4924920;29;20090;-74
2022/03/03 10:38:58;;;;;;;12.17;8.43;;;3.90;99.90;;;;;;4927203;29;20051;-74
2022/03/03 10:41:46;;;;;;;13.13;10.63;;;3.90;99.90;;;;;;4927448;29;20086;-74
2022/03/03 10:44:15;;;;;;;10.67;9.60;;;3.90;99.90;;;;;;4920311;29;20055;-74
2022/03/03 10:47:14;;;;;;;14.27;7.60;;;4.00;99.90;;;;;;4919457;29;20522;-73
2022/03/03 10:49:52;;;;;;;12.87;11.63;;;4.00;99.90;;;;;;4912004;29;20311;-73
2022/03/03 10:52:30;;;;;;;13.20;11.27;;;4.10;99.90;;;;;;4907283;29;20507;-73
2022/03/03 10:55:12;;;;;;;13.00;9.73;;;4.20;99.90;;;;;;4915853;29;20248;-74
2022/03/03 10:57:45;;;;;;;;;;;4.20;99.90;;;;;;4926733;29;20118;-73
2022/03/03 11:00:20;;;;;;;11.20;6.93;;;4.30;99.90;;;;;;4927358;29;19962;-73
2022/03/03 11:02:48;;;;;;;10.60;9.57;;;4.30;99.90;;;;;;4923016;29;20301;-74
2022/03/03 11:05:15;;;;;;;8.90;8.00;;;4.40;99.90;;;;;;4926529;29;20078;-73
2022/03/03 11:07:43;;;;;;;13.00;8.97;;;4.40;99.90;;;;;;4926075;29;20052;-73
2022/03/03 11:10:23;;;;;;;10.07;8.40;;;4.50;99.90;;;;;;4926155;29;20555;-74
2022/03/03 11:12:49;;;;;;;12.03;9.50;;;4.40;99.90;;;;;;4924584;29;20051;-73
2022/03/03 11:15:17;;;;;;;9.77;8.90;;;4.40;99.90;;;;;;4927043;29;20043;-74
2022/03/03 11:17:43;;;;;;;12.20;9.17;;;4.50;99.90;;;;;;4927329;29;20050;-73
2022/03/03 11:20:12;;;;;;;7.83;7.20;;;4.50;99.90;;;;;;4926214;29;20094;-73
2022/03/03 11:22:40;;;;;;;18.77;9.70;;;4.60;99.90;;;;;;4922498;29;20054;-74
2022/03/03 11:25:08;;;;;;;7.40;6.80;;;4.60;99.90;;;;;;4917030;29;20051;-74
2022/03/03 11:27:35;;;;;;;15.77;10.80;;;4.60;99.90;;;;;;4915939;29;20072;-74
2022/03/03 11:30:29;;;;;;;11.67;9.03;;;4.70;99.90;;;;;;4906179;29;20044;-74
2022/03/03 11:33:17;;;;;;;8.60;6.87;;;4.70;99.90;;;;;;4907600;29;20048;-74
2022/03/03 11:35:48;;;;;;;10.17;7.67;;;4.70;99.90;;;;;;4909023;29;20112;-74
2022/03/03 11:38:15;;;;;;;8.73;7.77;;;4.80;99.90;;;;;;4926798;29;20047;-74
2022/03/03 11:40:58;;;;;;;11.53;8.23;;;4.80;99.90;;;;;;4925529;29;20048;-76
2022/03/03 11:43:26;;;;;;;5.70;5.23;;;4.90;99.90;;;;;;4923958;29;20062;-75
2022/03/03 11:45:54;;;;;;;9.27;7.33;;;4.90;99.90;;;;;;4910603;29;20048;-74
2022/03/03 11:48:22;;;;;;;6.07;5.32;;;4.90;99.90;;;;;;4926037;29;20044;-74
2022/03/03 11:50:49;;;;;;;7.30;6.53;;;5.00;99.90;;;;;;4926368;29;20107;-74
2022/03/03 11:53:25;;;;;;;10.98;6.53;;;5.00;99.90;;;;;;4926575;29;20035;-74
2022/03/03 11:56:02;;;;;;;7.63;6.00;;;5.10;99.90;;;;;;4926271;29;20051;-73
2022/03/03 11:58:36;;;;;;;11.70;5.72;;;5.20;99.90;;;;;;4925146;29;20043;-74
2022/03/03 12:01:05;;;;;;;6.95;6.28;;;5.30;99.90;;;;;;4925818;29;20044;-74
2022/03/03 12:03:32;;;;;;;9.45;7.93;;;5.30;99.90;;;;;;4919279;29;20123;-74
2022/03/03 12:06:05;;;;;;;13.38;9.13;;;5.30;99.90;;;;;;4907479;29;20103;-78
2022/03/03 12:08:33;;;;;;;10.40;8.23;;;5.30;99.90;;;;;;4921163;29;20055;-78
2022/03/03 12:11:06;;;;;;;14.55;6.38;;;5.30;99.90;;;;;;4940379;28;20075;-78
2022/03/03 12:13:38;;;;;;;6.80;6.15;;;5.40;99.90;;;;;;4922370;29;20052;-81
2022/03/03 12:16:28;;;;;;;8.75;6.20;;;5.50;99.90;;;;;;4928959;28;20062;-78
2022/03/03 12:18:57;;;;;;;13.20;7.85;;;5.50;99.90;;;;;;4921389;29;20142;-80
2022/03/03 12:21:30;;;;;;;13.18;6.63;;;5.60;99.90;;;;;;4922115;29;20103;-81
2022/03/03 12:24:14;;;;;;;10.48;7.40;;;5.60;99.90;;;;;;4904819;29;20143;-81
2022/03/03 12:26:55;;;;;;;8.05;5.38;;;5.60;99.90;;;;;;4917197;29;20511;-81
2022/03/03 12:29:38;;;;;;;8.93;7.38;;;5.70;99.90;;;;;;4923344;29;20059;-81
2022/03/03 12:32:42;;;;;;;6.32;5.68;;;5.80;99.90;;;;;;4907021;29;20289;-78
2022/03/03 12:35:12;;;;;;;10.10;7.68;;;5.90;99.90;;;;;;4919345;29;20461;-76
2022/03/03 12:37:46;;;;;;;8.65;5.82;;;5.90;99.90;;;;;;4922140;29;20546;-76
2022/03/03 12:40:19;;;;;;;5.60;5.10;;;5.90;99.90;;;;;;4918178;29;20046;-76
2022/03/03 12:42:46;;;;;;;9.18;5.90;;;5.90;99.90;;;;;;4897831;29;20043;-77
2022/03/03 12:45:15;;;;;;;6.35;4.55;;;6.00;99.90;;;;;;4912605;29;20152;-76